createdAt,value
2016-11-26T00:00:14.763Z,99.99
2016-11-26T00:01:27.688Z,99.99
2016-11-26T00:02:41.228Z,99.99
2016-11-26T00:03:53.178Z,99.99
2016-11-26T00:05:05.613Z,99.99
2016-11-26T00:06:18.603Z,99.99
2016-11-26T00:07:32.096Z,99.99
2016-11-26T00:08:45.042Z,99.99
2016-11-26T00:09:58.024Z,99.99
2016-11-26T00:11:09.928Z,99.99
2016-11-26T00:12:22.955Z,99.99
2016-11-26T00:13:35.413Z,99.99
2016-11-26T00:14:48.382Z,99.99
2016-11-26T00:16:01.323Z,99.99
2016-11-26T00:17:14.301Z,99.99
2016-11-26T00:18:25.712Z,99.99
2016-11-26T00:19:39.224Z,99.99
2016-11-26T00:20:52.231Z,99.99
2016-11-26T00:22:05.218Z,99.99
2016-11-26T00:23:18.347Z,99.99
2016-11-26T00:24:30.826Z,99.99
2016-11-26T00:25:42.730Z,99.99
2016-11-26T00:26:56.228Z,99.99
2016-11-26T00:28:08.666Z,99.99
2016-11-26T00:29:20.080Z,99.99
2016-11-26T00:30:33.560Z,99.99
2016-11-26T00:31:46.046Z,99.99
2016-11-26T00:32:59.643Z,99.99
2016-11-26T00:34:12.128Z,99.99
2016-11-26T00:35:24.595Z,99.99
2016-11-26T00:36:37.568Z,99.99
2016-11-26T00:37:50.626Z,99.99
2016-11-26T00:40:47.727Z,99.99
2016-11-26T00:42:00.194Z,99.99
2016-11-26T00:43:12.134Z,99.99
2016-11-26T00:44:25.663Z,99.99
2016-11-26T00:45:38.691Z,99.99
2016-11-26T00:46:49.572Z,99.99
2016-11-26T00:48:02.040Z,99.99
2016-11-26T00:49:15.059Z,99.99
2016-11-26T00:50:59.160Z,99.99
2016-11-26T00:52:12.153Z,99.99
2016-11-26T00:53:24.572Z,99.99
2016-11-26T00:54:37.569Z,99.99
2016-11-26T00:55:50.021Z,99.99
2016-11-26T00:57:02.010Z,99.99
2016-11-26T00:58:14.502Z,99.99
2016-11-26T00:59:26.456Z,99.99
2016-11-26T01:00:38.886Z,99.99
2016-11-26T01:01:51.361Z,99.99
2016-11-26T01:03:03.800Z,99.99
2016-11-26T01:04:16.817Z,99.99
2016-11-26T01:05:27.701Z,99.99
2016-11-26T01:06:40.190Z,99.99
2016-11-26T01:07:51.553Z,99.99
2016-11-26T01:09:04.516Z,99.99
2016-11-26T01:10:17.456Z,99.99
2016-11-26T01:11:29.419Z,99.99
2016-11-26T01:12:41.821Z,99.99
2016-11-26T01:13:54.823Z,99.99
2016-11-26T01:15:07.854Z,99.99
2016-11-26T01:16:20.348Z,99.99
2016-11-26T01:17:33.358Z,99.99
2016-11-26T01:18:45.822Z,99.99
2016-11-26T01:19:58.821Z,99.99
2016-11-26T01:21:10.247Z,99.99
2016-11-26T01:22:23.223Z,99.99
2016-11-26T01:23:35.659Z,99.99
2016-11-26T01:24:49.113Z,99.99
2016-11-26T01:26:01.584Z,99.99
2016-11-26T01:27:14.041Z,99.99
2016-11-26T01:28:26.565Z,99.99
2016-11-26T01:29:38.501Z,99.99
2016-11-26T01:30:51.530Z,99.99
2016-11-26T01:32:04.584Z,99.99
2016-11-26T01:33:16.526Z,99.99
2016-11-26T01:34:29.009Z,99.99
2016-11-26T01:35:41.947Z,99.99
2016-11-26T01:36:54.416Z,99.99
2016-11-26T01:38:07.905Z,99.99
2016-11-26T01:39:20.876Z,99.99
2016-11-26T01:40:32.835Z,99.99
2016-11-26T01:41:46.380Z,99.99
2016-11-26T01:42:59.306Z,99.99
2016-11-26T01:44:12.768Z,99.99
2016-11-26T01:45:25.245Z,99.99
2016-11-26T01:46:38.260Z,99.99
2016-11-26T01:47:50.713Z,99.99
2016-11-26T01:49:04.222Z,99.99
2016-11-26T01:50:16.652Z,99.99
2016-11-26T01:51:29.126Z,99.99
2016-11-26T01:52:41.522Z,99.99
2016-11-26T01:53:55.006Z,99.99
2016-11-26T01:56:52.621Z,99.99
2016-11-26T01:58:06.096Z,99.99
2016-11-26T01:59:18.615Z,99.99
2016-11-26T02:00:31.076Z,99.99
2016-11-26T02:01:43.571Z,99.99
2016-11-26T02:02:57.085Z,99.99
2016-11-26T02:04:09.556Z,99.99
2016-11-26T02:05:21.447Z,99.99
2016-11-26T02:06:34.943Z,99.99
2016-11-26T02:07:47.983Z,99.99
2016-11-26T02:09:00.480Z,99.99
2016-11-26T02:10:13.446Z,99.99
2016-11-26T02:11:25.463Z,99.99
2016-11-26T02:12:38.439Z,99.99
2016-11-26T02:13:51.925Z,99.99
2016-11-26T02:15:03.305Z,99.99
2016-11-26T02:16:16.297Z,99.99
2016-11-26T02:17:28.763Z,99.99
2016-11-26T02:18:41.248Z,99.99
2016-11-26T02:19:52.661Z,99.99
2016-11-26T02:21:05.155Z,99.99
2016-11-26T02:22:18.157Z,99.99
2016-11-26T02:23:30.665Z,99.99
2016-11-26T02:24:43.190Z,99.99
2016-11-26T02:25:56.224Z,99.99
2016-11-26T02:27:08.204Z,99.99
2016-11-26T02:28:21.208Z,99.99
2016-11-26T02:29:33.146Z,99.99
2016-11-26T02:30:46.170Z,99.99
2016-11-26T02:31:59.143Z,99.99
2016-11-26T02:33:11.668Z,99.99
2016-11-26T02:34:24.194Z,99.99
2016-11-26T02:35:37.267Z,99.99
2016-11-26T02:36:49.222Z,99.99
2016-11-26T02:38:01.148Z,99.99
2016-11-26T02:39:14.169Z,99.99
2016-11-26T02:40:27.227Z,99.99
2016-11-26T02:41:40.161Z,99.99
2016-11-26T02:42:53.240Z,99.99
2016-11-26T02:44:06.248Z,99.99
2016-11-26T02:45:17.716Z,99.99
2016-11-26T02:46:31.303Z,99.99
2016-11-26T02:47:44.302Z,99.99
2016-11-26T02:48:56.786Z,99.99
2016-11-26T02:50:09.257Z,99.99
2016-11-26T02:51:22.244Z,99.99
2016-11-26T02:52:34.733Z,99.99
2016-11-26T02:53:47.268Z,99.99
2016-11-26T02:54:59.230Z,99.99
2016-11-26T02:56:12.265Z,99.99
2016-11-26T02:57:25.780Z,99.99
2016-11-26T02:58:38.293Z,99.99
2016-11-26T02:59:50.768Z,99.99
2016-11-26T03:01:04.402Z,99.99
2016-11-26T03:02:16.408Z,99.99
2016-11-26T03:03:29.388Z,99.99
2016-11-26T03:04:41.871Z,99.99
2016-11-26T03:05:53.878Z,99.99
2016-11-26T03:07:06.912Z,99.99
2016-11-26T03:08:18.382Z,99.99
2016-11-26T03:09:30.902Z,99.99
2016-11-26T03:10:42.351Z,99.99
2016-11-26T03:11:55.966Z,99.99
2016-11-26T03:13:07.359Z,99.99
2016-11-26T03:14:19.253Z,99.99
2016-11-26T03:15:31.227Z,99.99
2016-11-26T03:16:43.702Z,99.99
2016-11-26T03:17:56.210Z,99.99
2016-11-26T03:19:08.209Z,99.99
2016-11-26T03:20:21.221Z,99.99
2016-11-26T03:21:32.664Z,99.99
2016-11-26T03:22:45.650Z,99.99
2016-11-26T03:24:29.227Z,99.99
2016-11-26T03:25:41.794Z,99.99
2016-11-26T03:27:25.387Z,99.99
2016-11-26T03:28:37.901Z,99.99
2016-11-26T03:29:50.893Z,99.99
2016-11-26T03:31:03.422Z,99.99
2016-11-26T03:32:16.377Z,99.99
2016-11-26T03:33:29.896Z,99.99
2016-11-26T03:34:42.884Z,99.99
2016-11-26T03:35:54.805Z,99.99
2016-11-26T03:37:08.292Z,99.99
2016-11-26T03:38:21.324Z,99.99
2016-11-26T03:39:33.760Z,99.99
2016-11-26T03:40:46.267Z,99.99
2016-11-26T03:41:59.244Z,99.99
2016-11-26T03:43:12.819Z,99.99
2016-11-26T03:44:25.824Z,99.99
2016-11-26T03:45:37.789Z,99.99
2016-11-26T03:46:51.383Z,99.99
2016-11-26T03:48:04.361Z,99.99
2016-11-26T03:49:16.259Z,99.99
2016-11-26T03:50:29.163Z,99.99
2016-11-26T03:51:41.679Z,99.99
2016-11-26T03:52:54.656Z,99.99
2016-11-26T03:54:06.632Z,99.99
2016-11-26T03:55:19.590Z,99.99
2016-11-26T03:56:31.034Z,99.99
2016-11-26T03:57:43.003Z,99.99
2016-11-26T03:58:55.563Z,99.99
2016-11-26T04:00:07.504Z,99.99
2016-11-26T04:01:20.017Z,99.99
2016-11-26T04:02:33.547Z,99.99
2016-11-26T04:03:47.063Z,99.99
2016-11-26T04:05:30.701Z,99.99
2016-11-26T04:06:43.137Z,99.99
2016-11-26T04:07:55.599Z,99.99
2016-11-26T04:09:08.621Z,99.99
2016-11-26T04:10:21.067Z,99.99
2016-11-26T04:11:33.052Z,99.99
2016-11-26T04:12:45.471Z,99.99
2016-11-26T04:13:57.370Z,99.99
2016-11-26T04:15:09.816Z,99.99
2016-11-26T04:16:22.293Z,99.99
2016-11-26T04:17:34.755Z,99.99
2016-11-26T04:18:46.715Z,99.99
2016-11-26T04:19:59.244Z,99.99
2016-11-26T04:21:11.791Z,99.99
2016-11-26T04:22:24.748Z,99.99
2016-11-26T04:23:37.692Z,99.99
2016-11-26T04:24:50.165Z,99.99
2016-11-26T04:26:02.082Z,99.99
2016-11-26T04:27:14.621Z,99.99
2016-11-26T04:28:26.056Z,99.99
2016-11-26T04:29:39.023Z,99.99
2016-11-26T04:30:52.042Z,99.99
2016-11-26T04:32:05.094Z,99.99
2016-11-26T04:33:18.123Z,99.99
2016-11-26T04:34:31.155Z,99.99
2016-11-26T04:35:43.652Z,99.99
2016-11-26T04:36:56.605Z,99.99
2016-11-26T04:38:09.014Z,99.99
2016-11-26T04:39:53.600Z,99.99
2016-11-26T04:41:06.064Z,99.99
2016-11-26T04:42:18.517Z,99.99
2016-11-26T04:43:32.056Z,99.99
2016-11-26T04:44:44.516Z,99.99
2016-11-26T04:45:55.931Z,99.99
2016-11-26T04:47:07.351Z,99.99
2016-11-26T04:48:20.318Z,99.99
2016-11-26T04:49:33.860Z,99.99
2016-11-26T04:50:46.799Z,99.99
2016-11-26T04:51:59.791Z,99.99
2016-11-26T04:53:13.331Z,99.99
2016-11-26T04:54:25.772Z,99.99
2016-11-26T04:55:39.258Z,99.99
2016-11-26T04:56:51.242Z,99.99
2016-11-26T04:58:04.237Z,99.99
2016-11-26T04:59:17.813Z,99.99
2016-11-26T05:00:30.308Z,99.99
2016-11-26T05:01:43.870Z,99.99
2016-11-26T05:02:56.877Z,99.99
2016-11-26T05:04:09.864Z,99.99
2016-11-26T05:05:22.341Z,99.99
2016-11-26T05:06:34.771Z,99.99
2016-11-26T05:07:46.702Z,99.99
2016-11-26T05:08:59.665Z,99.99
2016-11-26T05:10:43.823Z,99.99
2016-11-26T05:11:56.293Z,99.99
2016-11-26T05:13:09.825Z,99.99
2016-11-26T05:14:22.257Z,99.99
2016-11-26T05:15:34.666Z,99.99
2016-11-26T05:16:46.629Z,99.99
2016-11-26T05:17:58.645Z,99.99
2016-11-26T05:19:12.235Z,99.99
2016-11-26T05:20:25.163Z,99.99
2016-11-26T05:21:37.125Z,99.99
2016-11-26T05:22:49.078Z,99.99
2016-11-26T05:24:02.105Z,99.99
2016-11-26T05:25:13.532Z,99.99
2016-11-26T05:26:25.500Z,99.99
2016-11-26T05:27:37.929Z,99.99
2016-11-26T05:28:50.417Z,99.99
2016-11-26T05:30:03.420Z,99.99
2016-11-26T05:31:15.903Z,99.99
2016-11-26T05:32:27.347Z,99.99
2016-11-26T05:33:39.788Z,99.99
2016-11-26T05:34:52.233Z,99.99
2016-11-26T05:36:04.215Z,99.99
2016-11-26T05:37:17.222Z,99.99
2016-11-26T05:38:30.186Z,99.99
2016-11-26T05:39:42.669Z,99.99
2016-11-26T05:40:54.621Z,99.99
2016-11-26T05:42:07.622Z,99.99
2016-11-26T05:43:21.185Z,99.99
2016-11-26T05:44:34.245Z,99.99
2016-11-26T05:45:46.697Z,99.99
2016-11-26T05:46:59.685Z,99.99
2016-11-26T05:48:12.125Z,99.99
2016-11-26T05:49:25.086Z,99.99
2016-11-26T05:50:36.477Z,99.99
2016-11-26T05:51:49.033Z,99.99
2016-11-26T05:53:00.984Z,99.99
2016-11-26T05:54:14.026Z,99.99
2016-11-26T05:55:25.995Z,99.99
2016-11-26T05:56:39.040Z,99.99
2016-11-26T05:57:51.532Z,99.99
2016-11-26T05:59:04.053Z,99.99
2016-11-26T06:00:16.537Z,99.99
2016-11-26T06:01:29.545Z,99.99
2016-11-26T06:02:42.017Z,99.99
2016-11-26T06:04:26.657Z,99.99
2016-11-26T06:05:39.592Z,99.99
2016-11-26T06:06:52.056Z,99.99
2016-11-26T06:08:03.456Z,99.99
2016-11-26T06:09:15.416Z,99.99
2016-11-26T06:10:27.326Z,99.99
2016-11-26T06:11:39.755Z,99.99
2016-11-26T06:12:52.758Z,99.99
2016-11-26T06:14:05.766Z,99.99
2016-11-26T06:15:17.737Z,99.99
2016-11-26T06:16:29.084Z,99.99
2016-11-26T06:17:39.918Z,99.99
2016-11-26T06:18:53.448Z,99.99
2016-11-26T06:20:06.966Z,99.99
2016-11-26T06:21:19.443Z,99.99
2016-11-26T06:22:31.400Z,99.99
2016-11-26T06:23:43.362Z,99.99
2016-11-26T06:24:56.424Z,99.99
2016-11-26T06:26:08.915Z,99.99
2016-11-26T06:27:20.270Z,99.99
2016-11-26T06:28:33.260Z,99.99
2016-11-26T06:29:45.232Z,99.99
2016-11-26T06:30:57.223Z,99.99
2016-11-26T06:32:09.743Z,99.99
2016-11-26T06:33:23.309Z,99.99
2016-11-26T06:34:35.681Z,99.99
2016-11-26T06:35:48.777Z,99.99
2016-11-26T06:37:02.419Z,99.99
2016-11-26T06:38:15.947Z,99.99
2016-11-26T06:39:28.449Z,99.99
2016-11-26T06:40:42.033Z,99.99
2016-11-26T06:41:55.085Z,99.99
2016-11-26T06:43:08.608Z,99.99
2016-11-26T06:44:22.148Z,99.99
2016-11-26T06:45:35.173Z,99.99
2016-11-26T06:46:48.715Z,99.99
2016-11-26T06:48:01.692Z,99.99
2016-11-26T06:49:14.161Z,99.99
2016-11-26T06:50:26.675Z,99.99
2016-11-26T06:51:38.624Z,99.99
2016-11-26T06:52:52.147Z,99.99
2016-11-26T06:54:04.660Z,99.99
2016-11-26T06:55:17.661Z,99.99
2016-11-26T06:56:29.632Z,99.99
2016-11-26T06:57:42.174Z,99.99
2016-11-26T06:58:53.631Z,99.99
2016-11-26T07:00:06.096Z,99.99
2016-11-26T07:01:19.126Z,99.99
2016-11-26T07:02:31.666Z,99.99
2016-11-26T07:03:43.657Z,99.99
2016-11-26T07:04:56.707Z,99.99
2016-11-26T07:06:10.274Z,99.99
2016-11-26T07:07:22.781Z,99.99
2016-11-26T07:08:35.831Z,99.99
2016-11-26T07:09:48.898Z,99.99
2016-11-26T07:11:00.844Z,99.99
2016-11-26T07:12:13.310Z,99.99
2016-11-26T07:13:26.847Z,99.99
2016-11-26T07:14:38.282Z,99.99
2016-11-26T07:15:51.294Z,99.99
2016-11-26T07:17:04.808Z,99.99
2016-11-26T07:18:16.715Z,99.99
2016-11-26T07:19:29.705Z,99.99
2016-11-26T07:20:42.213Z,99.99
2016-11-26T07:21:54.704Z,99.99
2016-11-26T07:23:08.328Z,99.99
2016-11-26T07:24:20.244Z,99.99
2016-11-26T07:25:32.688Z,99.99
2016-11-26T07:26:44.582Z,99.99
2016-11-26T07:27:57.031Z,99.99
2016-11-26T07:29:10.004Z,99.99
2016-11-26T07:30:22.985Z,99.99
2016-11-26T07:31:36.534Z,99.99
2016-11-26T07:32:49.481Z,99.99
2016-11-26T07:34:01.919Z,99.99
2016-11-26T07:35:13.801Z,99.99
2016-11-26T07:36:26.799Z,99.99
2016-11-26T07:37:39.254Z,99.99
2016-11-26T07:38:52.240Z,99.99
2016-11-26T07:40:03.601Z,99.99
2016-11-26T07:41:15.515Z,99.99
2016-11-26T07:42:27.463Z,99.99
2016-11-26T07:43:39.434Z,99.99
2016-11-26T07:44:51.360Z,99.99
2016-11-26T07:46:03.925Z,99.99
2016-11-26T07:48:59.923Z,99.99
2016-11-26T07:50:13.458Z,99.99
2016-11-26T07:51:26.499Z,99.99
2016-11-26T07:52:38.440Z,99.99
2016-11-26T07:53:50.414Z,99.99
2016-11-26T07:55:02.896Z,99.99
2016-11-26T07:56:16.434Z,99.99
2016-11-26T07:57:28.924Z,99.99
2016-11-26T07:58:41.949Z,99.99
2016-11-26T07:59:53.887Z,99.99
2016-11-26T08:01:06.304Z,99.99
2016-11-26T08:02:18.834Z,99.99
2016-11-26T08:03:32.367Z,99.99
2016-11-26T08:04:44.818Z,99.99
2016-11-26T08:05:56.737Z,99.99
2016-11-26T08:07:10.291Z,99.99
2016-11-26T08:08:21.717Z,99.99
2016-11-26T08:09:33.138Z,99.99
2016-11-26T08:10:45.573Z,99.99
2016-11-26T08:11:58.027Z,99.99
2016-11-26T08:13:10.479Z,99.99
2016-11-26T08:14:23.512Z,99.99
2016-11-26T08:15:34.888Z,99.99
2016-11-26T08:16:48.487Z,99.99
2016-11-26T08:18:01.965Z,99.99
2016-11-26T08:19:14.970Z,99.99
2016-11-26T08:20:26.891Z,99.99
2016-11-26T08:21:40.415Z,99.99
2016-11-26T08:22:52.351Z,99.99
2016-11-26T08:24:05.422Z,99.99
2016-11-26T08:25:17.894Z,99.99
2016-11-26T08:26:30.861Z,99.99
2016-11-26T08:27:43.345Z,99.99
2016-11-26T08:28:56.386Z,99.99
2016-11-26T08:30:09.399Z,99.99
2016-11-26T08:31:21.805Z,99.99
2016-11-26T08:32:34.900Z,99.99
2016-11-26T08:33:46.351Z,99.99
2016-11-26T08:34:59.350Z,99.99
2016-11-26T08:36:11.292Z,99.99
2016-11-26T08:37:24.303Z,99.99
2016-11-26T08:38:36.754Z,99.99
2016-11-26T08:39:49.239Z,99.99
2016-11-26T08:41:01.202Z,99.99
2016-11-26T08:42:14.250Z,99.99
2016-11-26T08:43:26.734Z,99.99
2016-11-26T08:44:39.767Z,99.99
2016-11-26T08:45:52.744Z,99.99
2016-11-26T08:47:05.742Z,99.99
2016-11-26T08:48:19.297Z,99.99
2016-11-26T08:49:32.803Z,99.99
2016-11-26T08:50:45.791Z,99.99
2016-11-26T08:51:58.234Z,99.99
2016-11-26T08:53:11.755Z,99.99
2016-11-26T08:54:23.681Z,99.99
2016-11-26T08:55:36.674Z,99.99
2016-11-26T08:56:49.770Z,99.99
2016-11-26T08:58:02.723Z,99.99
2016-11-26T08:59:15.713Z,99.99
2016-11-26T09:00:28.176Z,99.99
2016-11-26T09:01:40.630Z,99.99
2016-11-26T09:02:53.660Z,99.99
2016-11-26T09:04:05.578Z,99.99
2016-11-26T09:05:17.530Z,99.99
2016-11-26T09:06:29.971Z,99.99
2016-11-26T09:07:42.459Z,99.99
2016-11-26T09:08:55.012Z,99.99
2016-11-26T09:10:08.008Z,99.99
2016-11-26T09:11:20.968Z,99.99
2016-11-26T09:12:33.959Z,99.99
2016-11-26T09:13:46.937Z,99.99
2016-11-26T09:14:59.913Z,99.99
2016-11-26T09:16:12.947Z,99.99
2016-11-26T09:17:26.448Z,99.99
2016-11-26T09:18:38.915Z,99.99
2016-11-26T09:19:51.943Z,99.99
2016-11-26T09:21:05.540Z,99.99
2016-11-26T09:22:18.528Z,99.99
2016-11-26T09:23:31.494Z,99.99
2016-11-26T09:24:44.511Z,99.99
2016-11-26T09:25:58.031Z,99.99
2016-11-26T09:27:11.059Z,99.99
2016-11-26T09:28:23.507Z,99.99
2016-11-26T09:29:36.462Z,99.99
2016-11-26T09:30:50.106Z,99.99
2016-11-26T09:32:03.149Z,99.99
2016-11-26T09:35:01.392Z,99.99
2016-11-26T09:36:14.391Z,99.99
2016-11-26T09:37:27.426Z,99.99
2016-11-26T09:38:41.005Z,99.99
2016-11-26T09:39:54.541Z,99.99
2016-11-26T09:41:07.541Z,99.99
2016-11-26T09:42:20.005Z,99.99
2016-11-26T09:43:33.058Z,99.99
2016-11-26T09:44:45.001Z,99.99
2016-11-26T09:45:58.001Z,99.99
2016-11-26T09:47:11.072Z,99.99
2016-11-26T09:48:24.133Z,99.99
2016-11-26T09:49:36.100Z,99.99
2016-11-26T09:50:48.548Z,99.99
2016-11-26T09:52:00.562Z,99.99
2016-11-26T09:53:12.552Z,99.99
2016-11-26T09:54:25.075Z,99.99
2016-11-26T09:55:38.062Z,99.99
2016-11-26T09:56:50.029Z,99.99
2016-11-26T09:58:32.579Z,99.99
2016-11-26T09:59:45.034Z,99.99
2016-11-26T10:00:57.444Z,99.99
2016-11-26T10:02:10.493Z,99.99
2016-11-26T10:03:22.977Z,99.99
2016-11-26T10:04:35.477Z,99.99
2016-11-26T10:05:47.957Z,99.99
2016-11-26T10:07:00.927Z,99.99
2016-11-26T10:08:13.355Z,99.99
2016-11-26T10:09:25.276Z,99.99
2016-11-26T10:10:38.292Z,99.99
2016-11-26T10:11:50.248Z,99.99
2016-11-26T10:13:03.727Z,99.99
2016-11-26T10:14:16.708Z,99.99
2016-11-26T10:15:28.631Z,99.99
2016-11-26T10:16:42.213Z,98.49
2016-11-26T10:17:55.789Z,98.15
2016-11-26T10:19:08.867Z,97.96
2016-11-26T10:20:21.361Z,97.77
2016-11-26T10:21:33.316Z,97.47
2016-11-26T10:22:46.308Z,97.19
2016-11-26T10:23:58.777Z,96.51
2016-11-26T10:25:11.796Z,97.19
2016-11-26T10:26:23.683Z,96.7
2016-11-26T10:27:35.664Z,95.98
2016-11-26T10:28:47.165Z,95.64
2016-11-26T10:29:59.225Z,93.99
2016-11-26T10:31:11.662Z,93.26
2016-11-26T10:32:24.175Z,93.46
2016-11-26T10:33:37.162Z,95.25
2016-11-26T10:34:50.705Z,94.86
2016-11-26T10:36:03.217Z,94.18
2016-11-26T10:37:16.187Z,93.41
2016-11-26T10:38:27.581Z,92.97
2016-11-26T10:39:40.032Z,93.46
2016-11-26T10:40:53.065Z,92.78
2016-11-26T10:42:37.194Z,92.2
2016-11-26T10:43:50.689Z,91.47
2016-11-26T10:45:03.159Z,90.16
2016-11-26T10:46:15.688Z,88.85
2016-11-26T10:47:28.168Z,88.65
2016-11-26T10:48:40.608Z,88.75
2016-11-26T10:49:52.556Z,90.16
2016-11-26T10:51:05.002Z,90.5
2016-11-26T10:52:17.454Z,90.02
2016-11-26T10:53:31.055Z,89.97
2016-11-26T10:54:44.866Z,89.39
2016-11-26T11:20:04.542Z,90.12
2016-11-26T11:21:16.948Z,90.07
2016-11-26T11:22:29.941Z,90.5
2016-11-26T11:23:42.968Z,89.44
2016-11-26T11:24:55.979Z,89.19
2016-11-26T11:26:09.503Z,88.42
2016-11-26T11:27:22.520Z,87.68
2016-11-26T11:28:35.539Z,85.99
2016-11-26T11:29:48.501Z,86.76
2016-11-26T11:31:01.002Z,87.54
2016-11-26T11:32:12.996Z,87.59
2016-11-26T11:33:26.519Z,87.01
2016-11-26T11:34:39.027Z,85.5
2016-11-26T11:35:51.520Z,85.64
2016-11-26T11:37:04.592Z,85.44
2016-11-26T11:38:17.132Z,86.18
2016-11-26T11:39:30.723Z,85.99
2016-11-26T11:40:43.762Z,86.23
2016-11-26T11:41:56.222Z,86.52
2016-11-26T11:43:09.279Z,86.18
2016-11-26T11:44:21.788Z,85.79
2016-11-26T11:45:34.800Z,86.32
2016-11-26T11:46:47.808Z,85.69
2016-11-26T11:48:00.302Z,85.25
2016-11-26T11:49:13.312Z,87.44
2016-11-26T11:50:26.884Z,86.37
2016-11-26T11:51:39.891Z,87.2
2016-11-26T11:52:53.443Z,86.52
2016-11-26T11:54:05.965Z,85.69
2016-11-26T11:55:18.901Z,85.89
2016-11-26T11:56:32.460Z,84.96
2016-11-26T11:57:45.482Z,84.38
2016-11-26T11:58:58.479Z,83.89
2016-11-26T12:00:12.008Z,83.94
2016-11-26T12:01:25.592Z,83.45
2016-11-26T12:02:38.576Z,82.48
2016-11-26T12:03:52.158Z,83.25
2016-11-26T12:05:04.732Z,84.28
2016-11-26T12:06:17.725Z,83.7
2016-11-26T12:07:30.729Z,83.99
2016-11-26T12:08:42.681Z,84.57
2016-11-26T12:09:54.658Z,84.67
2016-11-26T12:11:07.736Z,84.47
2016-11-26T12:12:20.742Z,84.38
2016-11-26T12:13:33.700Z,84.12
2016-11-26T12:14:46.160Z,82.38
2016-11-26T12:15:58.594Z,82.09
2016-11-26T12:17:12.284Z,81.74
2016-11-26T12:18:26.009Z,81.55
2016-11-26T12:19:39.056Z,81.1
2016-11-26T12:20:52.567Z,80.87
2016-11-26T12:22:06.069Z,81.35
2016-11-26T12:23:19.154Z,81.51
2016-11-26T12:24:32.659Z,82.48
2016-11-26T12:25:45.234Z,82.18
2016-11-26T12:26:58.733Z,81.51
2016-11-26T12:28:11.835Z,81.55
2016-11-26T12:29:24.902Z,81.16
2016-11-26T12:30:38.491Z,81.2
2016-11-26T12:31:51.543Z,80.42
2016-11-26T12:33:04.594Z,79.25
2016-11-26T12:34:17.657Z,78.71
2016-11-26T12:35:29.648Z,78.42
2016-11-26T12:36:42.668Z,78.61
2016-11-26T12:37:55.247Z,78.52
2016-11-26T12:39:07.814Z,79.39
2016-11-26T12:40:21.339Z,79.39
2016-11-26T12:41:34.376Z,78.71
2016-11-26T12:42:47.374Z,79
2016-11-26T12:43:59.857Z,79.3
2016-11-26T12:45:13.346Z,79.94
2016-11-26T12:46:26.333Z,79.94
2016-11-26T12:47:38.848Z,80.32
2016-11-26T12:48:51.914Z,79.16
2016-11-26T12:50:03.839Z,78.77
2016-11-26T12:51:15.265Z,79.55
2016-11-26T12:52:28.771Z,78.61
2016-11-26T12:53:41.759Z,78.17
2016-11-26T12:54:54.786Z,78.36
2016-11-26T12:56:07.803Z,77.68
2016-11-26T12:57:20.807Z,77.97
2016-11-26T12:58:33.841Z,76.65
2016-11-26T12:59:46.367Z,76.84
2016-11-26T13:00:58.845Z,76.84
2016-11-26T13:02:11.917Z,76.75
2016-11-26T13:03:25.455Z,76.35
2016-11-26T13:04:38.495Z,76.26
2016-11-26T13:05:51.538Z,76.81
2016-11-26T13:07:04.552Z,75.89
2016-11-26T13:08:17.560Z,77.25
2016-11-26T13:09:31.170Z,76.97
2016-11-26T13:10:44.202Z,77.25
2016-11-26T13:11:57.198Z,76.81
2016-11-26T13:13:09.131Z,75.93
2016-11-26T13:14:22.726Z,74.32
2016-11-26T13:15:35.726Z,73.57
2016-11-26T13:16:48.765Z,73.18
2016-11-26T13:18:01.766Z,72.92
2016-11-26T13:19:14.305Z,72.77
2016-11-26T13:20:27.334Z,72.77
2016-11-26T13:21:39.749Z,71.92
2016-11-26T13:22:52.759Z,71.96
2016-11-26T13:24:04.726Z,71.22
2016-11-26T13:25:17.225Z,71.22
2016-11-26T13:26:29.173Z,71.47
2016-11-26T13:27:42.660Z,71.47
2016-11-26T13:28:55.598Z,70.89
2016-11-26T13:30:08.108Z,70.34
2016-11-26T13:31:21.717Z,70.14
2016-11-26T13:32:34.726Z,69.72
2016-11-26T13:33:47.755Z,68.84
2016-11-26T13:35:00.237Z,69.26
2016-11-26T13:36:13.307Z,68.77
2016-11-26T13:37:26.383Z,68.81
2016-11-26T13:38:38.877Z,67.83
2016-11-26T13:39:51.329Z,68.32
2016-11-26T13:41:03.377Z,68.87
2016-11-26T13:42:14.752Z,69.72
2016-11-26T13:43:26.714Z,70.47
2016-11-26T13:44:38.670Z,70.17
2016-11-26T13:45:51.691Z,70.27
2016-11-26T13:47:04.186Z,71.15
2016-11-26T13:48:16.734Z,70.95
2016-11-26T13:49:29.795Z,70.31
2016-11-26T13:50:41.726Z,69.43
2016-11-26T13:51:54.716Z,69.46
2016-11-26T13:53:07.770Z,68.71
2016-11-26T13:54:21.314Z,68.32
2016-11-26T13:55:32.758Z,68.07
2016-11-26T13:56:45.273Z,67.19
2016-11-26T13:57:57.814Z,67.29
2016-11-26T14:00:55.531Z,67.19
2016-11-26T14:02:09.069Z,67.19
2016-11-26T14:03:22.077Z,67.29
2016-11-26T14:04:34.595Z,67.48
2016-11-26T14:05:47.653Z,67.93
2016-11-26T14:07:00.696Z,68.32
2016-11-26T14:08:13.667Z,67.8
2016-11-26T14:09:27.151Z,68.74
2016-11-26T14:10:40.180Z,67.9
2016-11-26T14:11:53.774Z,67.32
2016-11-26T14:13:06.299Z,68.03
2016-11-26T14:14:19.336Z,67.87
2016-11-26T14:15:32.375Z,66.02
2016-11-26T14:16:44.283Z,65.75
2016-11-26T14:17:57.865Z,66.24
2016-11-26T14:19:10.475Z,66.34
2016-11-26T14:20:22.993Z,65.66
2016-11-26T14:21:36.530Z,65.75
2016-11-26T14:22:47.944Z,65.39
2016-11-26T14:24:00.415Z,65.49
2016-11-26T14:25:12.385Z,64.61
2016-11-26T14:26:24.930Z,64.42
2016-11-26T14:27:38.530Z,64.32
2016-11-26T14:28:52.124Z,63.83
2016-11-26T14:30:05.209Z,64.12
2016-11-26T14:31:18.209Z,64.51
2016-11-26T14:32:30.641Z,64.51
2016-11-26T14:33:44.199Z,64.78
2016-11-26T14:34:57.179Z,65.75
2016-11-26T14:36:10.198Z,66.24
2016-11-26T14:37:23.297Z,65.75
2016-11-26T14:38:36.413Z,66.7
2016-11-26T14:39:49.948Z,66.08
2016-11-26T14:41:03.497Z,66.66
2016-11-26T14:42:17.038Z,67.41
2016-11-26T14:43:30.632Z,67.18
2016-11-26T14:44:43.114Z,67.28
2016-11-26T14:45:55.600Z,68.29
2016-11-26T14:47:09.109Z,67.12
2016-11-26T14:48:21.557Z,67.71
2016-11-26T14:49:34.564Z,67.77
2016-11-26T14:50:48.145Z,67.96
2016-11-26T14:52:01.158Z,67.67
2016-11-26T14:53:14.125Z,67.28
2016-11-26T14:54:27.654Z,67.83
2016-11-26T14:55:40.655Z,68.23
2016-11-26T14:56:53.705Z,67.83
2016-11-26T14:58:06.699Z,68.03
2016-11-26T14:59:18.701Z,68.23
2016-11-26T15:00:32.252Z,68.32
2016-11-26T15:01:45.864Z,68.32
2016-11-26T15:02:59.368Z,68.32
2016-11-26T15:04:11.879Z,67.74
2016-11-26T15:05:25.452Z,67.08
2016-11-26T15:06:39.043Z,68.26
2016-11-26T15:07:52.089Z,67.25
2016-11-26T15:09:05.682Z,67.93
2016-11-26T15:10:18.125Z,68.26
2016-11-26T15:11:31.657Z,68.06
2016-11-26T15:12:44.687Z,67.96
2016-11-26T15:13:57.774Z,66.99
2016-11-26T15:15:10.829Z,66.11
2016-11-26T15:16:23.892Z,66.6
2016-11-26T15:17:36.891Z,66.96
2016-11-26T15:18:49.968Z,67.18
2016-11-26T15:20:03.497Z,67.47
2016-11-26T15:21:16.507Z,66.5
2016-11-26T15:22:30.051Z,66.6
2016-11-26T15:23:43.099Z,66.21
2016-11-26T15:24:56.693Z,66.69
2016-11-26T15:26:10.236Z,67.18
2016-11-26T15:27:23.842Z,67.18
2016-11-26T15:28:36.372Z,67.15
2016-11-26T15:29:49.379Z,66.86
2016-11-26T15:31:01.322Z,67.35
2016-11-26T15:32:14.319Z,66.99
2016-11-26T15:33:27.291Z,66.5
2016-11-26T15:34:39.754Z,65.63
2016-11-26T15:35:52.209Z,66.02
2016-11-26T15:37:05.271Z,65.82
2016-11-26T15:38:17.702Z,66.21
2016-11-26T15:39:29.620Z,66.11
2016-11-26T15:40:42.067Z,66.14
2016-11-26T15:41:54.034Z,65.36
2016-11-26T15:43:07.067Z,64.48
2016-11-26T15:44:51.174Z,64.42
2016-11-26T15:46:04.857Z,62.66
2016-11-26T15:47:17.395Z,64.12
2016-11-26T15:48:30.391Z,64.09
2016-11-26T15:49:43.410Z,65.17
2016-11-26T15:50:56.453Z,65.07
2016-11-26T15:52:09.939Z,65.75
2016-11-26T15:53:22.414Z,65.36
2016-11-26T15:54:35.422Z,64.68
2016-11-26T15:55:48.926Z,64.58
2016-11-26T15:57:01.423Z,64
2016-11-26T15:58:13.840Z,63.51
2016-11-26T15:59:26.522Z,64.19
2016-11-26T16:00:40.099Z,63.7
2016-11-26T16:01:53.128Z,63.12
2016-11-26T16:03:06.705Z,62.95
2016-11-26T16:04:20.155Z,61.69
2016-11-26T16:05:32.639Z,62.37
2016-11-26T16:06:45.651Z,63.05
2016-11-26T16:07:57.555Z,62.95
2016-11-26T16:09:10.557Z,63.05
2016-11-26T16:10:23.609Z,63.09
2016-11-26T16:11:36.571Z,61.43
2016-11-26T16:12:49.068Z,61.04
2016-11-26T16:14:01.557Z,61.59
2016-11-26T16:15:13.985Z,61.04